createdAt,value
2022-08-31T00:00:10.079Z,6.07
2022-08-31T00:02:56.136Z,5.87
2022-08-31T00:05:22.839Z,5.90
2022-08-31T00:07:49.393Z,5.82
2022-08-31T00:10:18.288Z,6.47
2022-08-31T00:12:48.519Z,6.35
2022-08-31T00:15:20.242Z,5.95
2022-08-31T00:17:51.462Z,6.03
2022-08-31T00:20:32.327Z,5.82
2022-08-31T00:23:03.051Z,6.03
2022-08-31T00:25:29.940Z,6.18
2022-08-31T00:27:56.451Z,5.87
2022-08-31T00:30:24.135Z,5.87
2022-08-31T00:32:50.869Z,5.35
2022-08-31T00:35:19.216Z,6.07
2022-08-31T00:37:45.762Z,5.37
2022-08-31T00:40:13.310Z,6.35
2022-08-31T00:42:40.715Z,5.72
2022-08-31T00:45:09.765Z,5.53
2022-08-31T00:47:36.723Z,6.15
2022-08-31T00:50:10.878Z,5.55
2022-08-31T00:52:42.319Z,5.32
2022-08-31T00:55:28.344Z,4.87
2022-08-31T00:57:59.064Z,5.70
2022-08-31T01:00:28.269Z,5.32
2022-08-31T01:02:57.382Z,5.40
2022-08-31T01:05:24.633Z,5.53
2022-08-31T01:07:52.642Z,5.30
2022-08-31T01:10:24.947Z,5.97
2022-08-31T01:12:55.998Z,5.90
2022-08-31T01:15:24.488Z,5.20
2022-08-31T01:17:54.662Z,5.68
2022-08-31T01:23:20.270Z,5.95
2022-08-31T01:25:49.107Z,4.95
2022-08-31T01:28:16.586Z,5.55
2022-08-31T01:30:56.141Z,5.53
2022-08-31T01:33:22.671Z,5.82
2022-08-31T01:35:49.212Z,5.78
2022-08-31T01:38:15.817Z,5.97
2022-08-31T01:40:55.135Z,5.37
2022-08-31T01:43:22.018Z,5.10
2022-08-31T01:45:49.099Z,5.60
2022-08-31T01:48:16.558Z,5.15
2022-08-31T01:50:44.041Z,5.53
2022-08-31T01:53:11.448Z,5.43
2022-08-31T01:55:38.632Z,6.32
2022-08-31T01:58:06.402Z,5.87
2022-08-31T02:00:34.152Z,5.78
2022-08-31T02:03:04.434Z,5.03
2022-08-31T02:05:31.115Z,5.60
2022-08-31T02:07:57.831Z,5.45
2022-08-31T02:10:25.095Z,5.62
2022-08-31T02:12:51.639Z,5.57
2022-08-31T02:15:19.213Z,5.60
2022-08-31T02:17:45.781Z,5.20
2022-08-31T02:20:13.917Z,5.72
2022-08-31T02:22:40.532Z,5.50
2022-08-31T02:25:09.331Z,6.30
2022-08-31T02:27:36.691Z,5.72
2022-08-31T02:30:13.550Z,5.87
2022-08-31T02:32:40.574Z,4.78
2022-08-31T02:35:08.303Z,7.05
2022-08-31T02:37:35.243Z,4.78
2022-08-31T02:40:04.043Z,5.00
2022-08-31T02:42:52.238Z,4.97
2022-08-31T02:45:21.120Z,4.65
2022-08-31T02:47:47.653Z,4.57
2022-08-31T02:50:14.246Z,4.90
2022-08-31T02:52:40.776Z,4.95
2022-08-31T02:55:07.750Z,5.35
2022-08-31T02:57:34.295Z,5.35
2022-08-31T03:00:00.828Z,5.55
2022-08-31T03:02:32.112Z,5.00
2022-08-31T03:05:07.978Z,5.15
2022-08-31T03:07:35.947Z,4.90
2022-08-31T03:10:04.931Z,4.82
2022-08-31T03:12:31.515Z,4.87
2022-08-31T03:14:58.059Z,4.87
2022-08-31T03:17:24.672Z,4.80
2022-08-31T03:19:53.763Z,5.20
2022-08-31T03:22:20.282Z,4.97
2022-08-31T03:24:47.491Z,4.82
2022-08-31T03:27:14.001Z,4.87
2022-08-31T03:29:41.726Z,4.95
2022-08-31T03:32:08.549Z,5.43
2022-08-31T03:34:35.329Z,4.93
2022-08-31T03:37:02.132Z,5.47
2022-08-31T03:39:28.656Z,5.07
2022-08-31T03:41:55.209Z,5.72
2022-08-31T03:44:23.086Z,5.28
2022-08-31T03:46:56.531Z,5.28
2022-08-31T03:49:24.137Z,5.07
2022-08-31T03:51:51.201Z,4.93
2022-08-31T03:54:17.946Z,5.30
2022-08-31T03:56:46.027Z,5.22
2022-08-31T03:59:13.148Z,4.97
2022-08-31T04:01:40.108Z,4.75
2022-08-31T04:04:07.021Z,6.05
2022-08-31T04:06:33.646Z,4.93
2022-08-31T04:09:00.161Z,4.85
2022-08-31T04:11:44.966Z,5.97
2022-08-31T04:14:15.327Z,4.47
2022-08-31T04:16:43.067Z,4.82
2022-08-31T04:19:15.112Z,4.93
2022-08-31T04:21:43.379Z,4.60
2022-08-31T04:24:11.341Z,5.03
2022-08-31T04:26:40.021Z,5.03
2022-08-31T04:29:10.953Z,5.05
2022-08-31T04:31:39.821Z,4.90
2022-08-31T04:34:07.438Z,4.75
2022-08-31T04:36:33.974Z,4.57
2022-08-31T04:39:03.399Z,4.55
2022-08-31T04:41:34.940Z,4.53
2022-08-31T04:44:03.405Z,4.40
2022-08-31T04:46:31.609Z,4.60
2022-08-31T04:48:58.460Z,4.72
2022-08-31T04:51:30.342Z,4.22
2022-08-31T04:53:57.972Z,4.60
2022-08-31T04:56:28.501Z,4.75
2022-08-31T04:59:06.500Z,5.55
2022-08-31T05:01:43.447Z,4.93
2022-08-31T05:04:13.694Z,4.80
2022-08-31T05:06:44.106Z,4.90
2022-08-31T05:09:17.182Z,4.95
2022-08-31T05:11:45.106Z,4.40
2022-08-31T05:14:12.284Z,4.65
2022-08-31T05:16:40.650Z,4.95
2022-08-31T05:19:07.789Z,4.95
2022-08-31T05:21:40.486Z,4.70
2022-08-31T05:24:17.600Z,5.68
2022-08-31T05:26:48.364Z,5.90
2022-08-31T05:29:18.982Z,6.28
2022-08-31T05:31:51.490Z,5.80
2022-08-31T05:34:20.794Z,5.45
2022-08-31T05:36:53.547Z,5.75
2022-08-31T05:39:20.802Z,6.43
2022-08-31T05:41:48.016Z,6.28
2022-08-31T05:44:16.035Z,6.25
2022-08-31T05:46:43.142Z,5.95
2022-08-31T05:49:10.882Z,5.97
2022-08-31T05:51:39.191Z,5.80
2022-08-31T05:54:07.066Z,7.03
2022-08-31T05:56:34.971Z,5.75
2022-08-31T05:59:02.018Z,5.90
2022-08-31T06:01:36.609Z,6.60
2022-08-31T06:04:04.474Z,6.25
2022-08-31T06:06:31.134Z,6.28
2022-08-31T06:08:57.916Z,6.87
2022-08-31T06:11:28.880Z,6.65
2022-08-31T06:13:59.096Z,6.80
2022-08-31T06:16:27.768Z,6.53
2022-08-31T06:18:57.563Z,7.20
2022-08-31T06:21:32.702Z,6.82
2022-08-31T06:24:00.733Z,6.05
2022-08-31T06:26:31.811Z,5.90
2022-08-31T06:29:01.898Z,6.10
2022-08-31T06:31:41.884Z,6.95
2022-08-31T06:34:08.504Z,6.95
2022-08-31T06:36:35.353Z,6.60
2022-08-31T06:39:03.211Z,6.93
2022-08-31T06:41:36.964Z,6.80
2022-08-31T06:44:11.446Z,7.07
2022-08-31T06:46:40.035Z,7.55
2022-08-31T06:49:08.785Z,6.47
2022-08-31T06:51:37.178Z,6.40
2022-08-31T06:54:27.984Z,6.93
2022-08-31T06:56:58.092Z,6.07
2022-08-31T06:59:28.435Z,6.05
2022-08-31T07:01:57.790Z,5.80
2022-08-31T07:04:25.511Z,5.82
2022-08-31T07:06:52.087Z,6.75
2022-08-31T07:09:19.162Z,6.53
2022-08-31T07:11:51.514Z,5.30
2022-08-31T07:14:22.313Z,5.22
2022-08-31T07:16:51.070Z,5.37
2022-08-31T07:19:18.273Z,5.95
2022-08-31T07:21:54.875Z,5.60
2022-08-31T07:24:27.860Z,6.40
2022-08-31T07:26:58.682Z,5.40
2022-08-31T07:29:29.496Z,5.72
2022-08-31T07:31:58.530Z,5.62
2022-08-31T07:34:31.273Z,6.28
2022-08-31T07:37:17.874Z,5.70
2022-08-31T07:40:07.823Z,5.70
2022-08-31T07:42:42.943Z,6.18
2022-08-31T07:45:21.531Z,6.05
2022-08-31T07:47:53.102Z,6.62
2022-08-31T07:50:21.029Z,6.80
2022-08-31T07:52:54.121Z,6.10
2022-08-31T07:55:23.602Z,6.00
2022-08-31T07:57:52.702Z,5.65
2022-08-31T08:00:28.808Z,5.20
2022-08-31T08:02:56.341Z,5.45
2022-08-31T08:05:29.015Z,5.20
2022-08-31T08:08:07.307Z,4.95
2022-08-31T08:10:41.810Z,4.80
2022-08-31T08:13:08.456Z,4.03
2022-08-31T08:15:36.526Z,4.72
2022-08-31T08:18:07.105Z,4.90
2022-08-31T08:20:37.398Z,4.12
2022-08-31T08:23:15.792Z,5.32
2022-08-31T08:25:46.195Z,4.50
2022-08-31T08:28:36.062Z,5.05
2022-08-31T08:31:12.438Z,4.80
2022-08-31T08:33:39.067Z,4.72
2022-08-31T08:36:08.045Z,4.90
2022-08-31T08:38:46.555Z,4.45
2022-08-31T08:41:18.633Z,4.65
2022-08-31T08:44:00.013Z,4.50
2022-08-31T08:47:14.465Z,5.03
2022-08-31T08:49:54.336Z,4.47
2022-08-31T08:52:40.681Z,4.32
2022-08-31T08:55:18.350Z,4.07
2022-08-31T08:57:48.758Z,5.18
2022-08-31T09:00:25.932Z,4.28
2022-08-31T09:03:04.300Z,4.12
2022-08-31T09:06:45.939Z,3.90
2022-08-31T09:09:48.542Z,3.95
2022-08-31T09:16:35.775Z,4.10
2022-08-31T09:19:12.375Z,4.35
2022-08-31T09:21:47.858Z,4.28
2022-08-31T09:24:20.151Z,4.15
2022-08-31T09:27:18.657Z,3.97
2022-08-31T09:29:58.420Z,4.22
2022-08-31T09:32:34.164Z,3.75
2022-08-31T09:35:42.127Z,4.32
2022-08-31T09:38:29.510Z,4.35
2022-08-31T09:40:56.545Z,4.60
2022-08-31T09:43:37.941Z,4.28
2022-08-31T09:46:29.512Z,4.32
2022-08-31T09:49:02.345Z,4.00
2022-08-31T09:51:38.783Z,3.90
2022-08-31T09:54:47.371Z,4.72
2022-08-31T09:57:14.344Z,4.03
2022-08-31T09:59:47.077Z,4.37
2022-08-31T10:02:57.316Z,4.43
2022-08-31T10:05:41.851Z,4.30
2022-08-31T10:09:00.111Z,3.87
2022-08-31T10:11:34.445Z,4.18
2022-08-31T10:14:34.301Z,3.83
2022-08-31T10:17:11.514Z,4.00
2022-08-31T10:20:06.971Z,3.70
2022-08-31T10:22:49.630Z,3.90
2022-08-31T10:26:56.325Z,3.85
2022-08-31T10:29:55.486Z,3.85
2022-08-31T10:32:41.483Z,4.10
2022-08-31T10:36:11.000Z,4.30
2022-08-31T10:38:44.025Z,4.00
2022-08-31T10:41:22.831Z,3.80
2022-08-31T10:44:23.431Z,4.05
2022-08-31T10:46:57.179Z,4.05
2022-08-31T10:49:25.458Z,3.90
2022-08-31T10:52:52.578Z,4.60
2022-08-31T10:55:51.362Z,4.15
2022-08-31T11:01:26.771Z,4.15
2022-08-31T11:04:38.370Z,3.90
2022-08-31T11:10:22.711Z,4.20
2022-08-31T11:13:05.110Z,3.83
2022-08-31T11:20:09.393Z,3.97
2022-08-31T11:24:42.915Z,3.75
2022-08-31T11:28:49.094Z,3.90
2022-08-31T11:31:32.268Z,4.05
2022-08-31T11:34:26.812Z,3.50
2022-08-31T11:37:00.373Z,3.95
2022-08-31T11:39:43.597Z,4.35
2022-08-31T11:43:48.265Z,4.20
2022-08-31T11:47:01.632Z,4.00
2022-08-31T11:49:49.251Z,3.90
2022-08-31T11:52:47.520Z,3.95
2022-08-31T11:55:24.739Z,4.22
2022-08-31T11:59:34.415Z,4.30
2022-08-31T12:03:02.247Z,4.30
2022-08-31T12:05:50.199Z,4.62
2022-08-31T12:08:18.004Z,4.18
2022-08-31T12:13:35.770Z,4.60
2022-08-31T12:16:36.099Z,4.50
2022-08-31T12:20:06.859Z,4.70
2022-08-31T12:25:13.920Z,4.57
2022-08-31T12:30:34.290Z,4.37
2022-08-31T12:33:19.051Z,5.00
2022-08-31T12:35:48.696Z,4.70
2022-08-31T12:38:22.838Z,4.93
2022-08-31T12:40:55.999Z,5.10
2022-08-31T12:43:48.464Z,4.00
2022-08-31T12:49:37.742Z,5.47
2022-08-31T12:52:58.971Z,5.65
2022-08-31T13:01:54.449Z,4.72
2022-08-31T13:04:21.538Z,4.47
2022-08-31T13:06:48.049Z,4.85
2022-08-31T13:09:30.963Z,4.75
2022-08-31T13:12:00.847Z,5.43
2022-08-31T13:14:48.924Z,4.62
2022-08-31T13:17:21.116Z,4.93
2022-08-31T13:19:57.901Z,4.87
2022-08-31T13:22:40.613Z,4.70
2022-08-31T13:25:41.177Z,4.85
2022-08-31T13:28:25.437Z,4.85
2022-08-31T13:31:07.173Z,4.68
2022-08-31T13:33:40.540Z,4.87
2022-08-31T13:36:57.637Z,4.70
2022-08-31T13:39:34.253Z,4.90
2022-08-31T13:42:20.044Z,4.85
2022-08-31T13:45:00.324Z,5.55
2022-08-31T13:47:34.149Z,4.65
2022-08-31T13:50:21.811Z,5.15
2022-08-31T13:53:26.062Z,4.95
2022-08-31T13:55:53.107Z,5.30
2022-08-31T13:58:31.898Z,4.97
2022-08-31T14:01:23.823Z,4.68
2022-08-31T14:03:58.954Z,5.30
2022-08-31T14:06:34.070Z,4.28
2022-08-31T14:09:21.492Z,4.78
2022-08-31T14:12:04.472Z,4.40
2022-08-31T14:14:42.495Z,4.60
2022-08-31T14:17:15.651Z,5.22
2022-08-31T14:19:44.697Z,5.07
2022-08-31T14:22:34.600Z,4.75
2022-08-31T14:25:01.960Z,5.57
2022-08-31T14:27:29.470Z,4.82
2022-08-31T14:29:57.611Z,5.45
2022-08-31T14:32:25.028Z,4.87
2022-08-31T14:34:52.642Z,5.35
2022-08-31T14:37:19.404Z,5.20
2022-08-31T14:39:56.994Z,5.05
2022-08-31T14:42:28.937Z,4.90
2022-08-31T14:45:17.578Z,5.10
2022-08-31T14:47:47.181Z,4.50
2022-08-31T14:50:20.718Z,4.95
2022-08-31T14:52:52.257Z,4.25
2022-08-31T14:55:20.829Z,5.40
2022-08-31T14:57:57.265Z,4.75
2022-08-31T15:00:25.909Z,5.00
2022-08-31T15:02:53.556Z,4.78
2022-08-31T15:05:23.972Z,5.15
2022-08-31T15:07:53.575Z,6.40
2022-08-31T15:10:24.508Z,5.62
2022-08-31T15:12:51.799Z,5.47
2022-08-31T15:15:19.669Z,5.75
2022-08-31T15:17:49.542Z,5.68
2022-08-31T15:20:18.906Z,5.47
2022-08-31T15:22:47.139Z,5.50
2022-08-31T15:25:14.420Z,5.72
2022-08-31T15:27:43.384Z,5.60
2022-08-31T15:30:17.966Z,6.00
2022-08-31T15:32:46.034Z,5.62
2022-08-31T15:35:22.592Z,5.03
2022-08-31T15:37:55.597Z,5.82
2022-08-31T15:40:24.409Z,7.45
2022-08-31T15:42:53.230Z,10.07
2022-08-31T15:45:21.471Z,6.97
2022-08-31T15:48:06.578Z,5.78
2022-08-31T15:50:35.084Z,5.85
2022-08-31T15:53:09.792Z,6.47
2022-08-31T15:55:39.501Z,7.60
2022-08-31T15:58:07.068Z,7.60
2022-08-31T16:00:35.406Z,6.12
2022-08-31T16:03:02.907Z,7.03
2022-08-31T16:05:34.835Z,7.40
2022-08-31T16:08:01.560Z,6.55
2022-08-31T16:10:30.052Z,7.60
2022-08-31T16:12:56.579Z,8.00
2022-08-31T16:15:24.868Z,8.85
2022-08-31T16:17:56.376Z,7.47
2022-08-31T16:20:22.901Z,10.52
2022-08-31T16:22:49.418Z,9.07
2022-08-31T16:25:16.932Z,7.68
2022-08-31T16:27:46.917Z,7.68
2022-08-31T16:30:14.050Z,6.50
2022-08-31T16:32:40.568Z,6.55
2022-08-31T16:35:08.087Z,6.90
2022-08-31T16:37:34.649Z,7.10
2022-08-31T16:40:01.368Z,7.62
2022-08-31T16:42:28.023Z,7.90
2022-08-31T16:44:58.477Z,7.60
2022-08-31T16:47:28.352Z,7.32
2022-08-31T16:49:55.080Z,7.18
2022-08-31T16:52:25.909Z,6.68
2022-08-31T16:54:56.365Z,7.03
2022-08-31T16:57:27.588Z,6.72
2022-08-31T16:59:56.615Z,6.80
2022-08-31T17:02:24.209Z,6.85
2022-08-31T17:04:53.903Z,6.57
2022-08-31T17:07:23.677Z,6.43
2022-08-31T17:09:55.268Z,7.00
2022-08-31T17:12:26.142Z,7.82
2022-08-31T17:14:53.160Z,8.05
2022-08-31T17:17:25.944Z,7.90
2022-08-31T17:19:55.013Z,7.85
2022-08-31T17:22:31.672Z,8.27
2022-08-31T17:25:03.644Z,7.72
2022-08-31T17:27:32.362Z,8.73
2022-08-31T17:30:04.608Z,8.00
2022-08-31T17:32:31.557Z,8.10
2022-08-31T17:34:58.528Z,9.30
2022-08-31T17:37:31.537Z,7.95
2022-08-31T17:39:58.537Z,7.22
2022-08-31T17:42:27.318Z,7.72
2022-08-31T17:44:55.681Z,7.75
2022-08-31T17:47:24.642Z,8.48
2022-08-31T17:49:51.852Z,8.65
2022-08-31T17:52:20.810Z,8.05
2022-08-31T17:54:49.751Z,8.85
2022-08-31T17:57:19.106Z,8.60
2022-08-31T17:59:50.429Z,7.87
2022-08-31T18:02:33.813Z,8.00
2022-08-31T18:05:09.633Z,7.15
2022-08-31T18:07:39.909Z,7.22
2022-08-31T18:10:07.147Z,6.78
2022-08-31T18:12:40.137Z,6.53
2022-08-31T18:15:12.137Z,6.12
2022-08-31T18:17:38.669Z,6.70
2022-08-31T18:20:06.113Z,6.40
2022-08-31T18:22:32.626Z,6.30
2022-08-31T18:24:59.139Z,6.95
2022-08-31T18:27:26.238Z,6.22
2022-08-31T18:29:52.804Z,6.03
2022-08-31T18:32:19.342Z,6.22
2022-08-31T18:34:46.454Z,6.57
2022-08-31T18:37:21.254Z,6.55
2022-08-31T18:40:08.267Z,6.45
2022-08-31T18:42:56.822Z,6.85
2022-08-31T18:45:28.307Z,6.03
2022-08-31T18:48:23.155Z,6.50
2022-08-31T18:50:51.194Z,6.90
2022-08-31T18:53:28.771Z,6.87
2022-08-31T18:56:04.295Z,6.45
2022-08-31T18:58:30.834Z,6.80
2022-08-31T19:00:58.186Z,6.75
2022-08-31T19:03:26.541Z,7.47
2022-08-31T19:05:53.324Z,6.90
2022-08-31T19:08:19.843Z,7.18
2022-08-31T19:10:47.531Z,7.70
2022-08-31T19:13:15.840Z,7.75
2022-08-31T19:15:42.985Z,7.55
2022-08-31T19:18:09.505Z,6.95
2022-08-31T19:20:36.025Z,6.72
2022-08-31T19:23:03.374Z,6.80
2022-08-31T19:25:31.144Z,7.07
2022-08-31T19:28:00.520Z,5.90
2022-08-31T19:30:28.523Z,5.85
2022-08-31T19:32:55.546Z,6.07
2022-08-31T19:35:22.063Z,6.30
2022-08-31T19:37:51.054Z,6.47
2022-08-31T19:40:18.491Z,6.53
2022-08-31T19:43:41.493Z,6.57
2022-08-31T19:46:20.375Z,7.40
2022-08-31T19:48:48.992Z,6.82
2022-08-31T19:51:20.960Z,6.20
2022-08-31T19:53:49.720Z,6.62
2022-08-31T19:56:23.230Z,5.80
2022-08-31T19:58:53.119Z,6.03
2022-08-31T20:01:24.373Z,6.55
2022-08-31T20:03:56.796Z,6.47
2022-08-31T20:06:26.718Z,6.87
2022-08-31T20:08:54.269Z,6.65
2022-08-31T20:11:29.324Z,6.30
2022-08-31T20:13:58.670Z,6.18
2022-08-31T20:16:34.079Z,6.35
2022-08-31T20:19:03.907Z,6.20
2022-08-31T20:21:33.972Z,5.85
2022-08-31T20:24:09.487Z,5.95
2022-08-31T20:26:47.478Z,6.18
2022-08-31T20:29:20.477Z,6.32
2022-08-31T20:31:50.574Z,5.85
2022-08-31T20:34:21.041Z,5.87
2022-08-31T20:36:50.204Z,5.45
2022-08-31T20:39:18.874Z,6.03
2022-08-31T20:41:50.740Z,6.12
2022-08-31T20:44:28.285Z,6.45
2022-08-31T20:47:17.569Z,6.57
2022-08-31T20:49:57.240Z,6.72
2022-08-31T20:52:29.883Z,6.45
2022-08-31T20:55:02.269Z,6.43
2022-08-31T20:57:34.933Z,6.22
2022-08-31T21:00:04.696Z,6.65
2022-08-31T21:02:32.514Z,6.53
2022-08-31T21:05:15.209Z,5.93
2022-08-31T21:08:02.406Z,6.47
2022-08-31T21:10:37.546Z,5.72
2022-08-31T21:13:11.699Z,6.53
2022-08-31T21:15:47.391Z,6.12
2022-08-31T21:18:16.574Z,6.40
2022-08-31T21:20:45.362Z,5.55
2022-08-31T21:23:12.714Z,5.80
2022-08-31T21:25:45.339Z,5.85
2022-08-31T21:28:16.252Z,6.15
2022-08-31T21:30:44.501Z,6.28
2022-08-31T21:33:11.055Z,5.93
2022-08-31T21:35:37.580Z,6.15
2022-08-31T21:38:04.218Z,6.37
2022-08-31T21:40:30.768Z,6.60
2022-08-31T21:42:57.653Z,6.15
2022-08-31T21:45:24.567Z,6.32
2022-08-31T21:47:51.317Z,5.62
2022-08-31T21:50:17.958Z,6.10
2022-08-31T21:52:44.461Z,6.05
2022-08-31T21:55:12.907Z,6.25
2022-08-31T21:57:40.155Z,5.57
2022-08-31T22:00:13.037Z,6.07
2022-08-31T22:02:46.009Z,5.97
2022-08-31T22:05:13.145Z,6.10
2022-08-31T22:07:39.929Z,6.22
2022-08-31T22:10:08.150Z,5.45
2022-08-31T22:12:34.669Z,5.97
2022-08-31T22:15:04.496Z,5.78
2022-08-31T22:17:55.853Z,6.62
2022-08-31T22:20:32.336Z,5.68
2022-08-31T22:22:59.365Z,6.10
2022-08-31T22:25:26.505Z,5.90
2022-08-31T22:27:53.039Z,5.57
2022-08-31T22:30:21.420Z,6.57
2022-08-31T22:32:47.983Z,6.07
2022-08-31T22:35:16.021Z,6.20
2022-08-31T22:37:43.522Z,6.03
2022-08-31T22:40:19.093Z,5.93
2022-08-31T22:42:53.920Z,6.20
2022-08-31T22:45:23.009Z,6.43
2022-08-31T22:47:50.393Z,6.32
2022-08-31T22:50:17.077Z,6.43
2022-08-31T22:52:43.609Z,6.20
2022-08-31T22:55:10.132Z,6.40
2022-08-31T22:57:37.580Z,6.45
2022-08-31T23:00:11.513Z,6.78
2022-08-31T23:02:44.072Z,6.32
2022-08-31T23:05:15.603Z,6.35
2022-08-31T23:07:42.872Z,6.22
2022-08-31T23:10:17.134Z,6.57
2022-08-31T23:12:46.459Z,6.47
2022-08-31T23:15:14.622Z,6.78
2022-08-31T23:17:45.318Z,6.00
2022-08-31T23:20:18.755Z,6.25
2022-08-31T23:22:47.513Z,6.55
2022-08-31T23:25:17.352Z,6.70
2022-08-31T23:27:45.429Z,6.62
2022-08-31T23:30:18.008Z,6.28
2022-08-31T23:32:47.090Z,6.93
2022-08-31T23:35:17.676Z,6.35
2022-08-31T23:37:44.858Z,6.40
2022-08-31T23:40:14.635Z,6.93
2022-08-31T23:42:41.306Z,6.82
2022-08-31T23:45:09.552Z,6.70
2022-08-31T23:47:38.485Z,5.82
2022-08-31T23:50:07.612Z,5.90
2022-08-31T23:52:34.671Z,6.22
2022-08-31T23:55:02.492Z,6.45
2022-08-31T23:57:32.209Z,6.12
